Time;durP1;ratioP1;P1;durP2;ratioP2;P2;SDS_P1;SDS_P2;PMS_P1;PMS_P2;Temp;Humidity;BMP_temperature;BMP_pressure;BME280_temperature;BME280_humidity;BME280_pressure;Samples;Min_cycle;Max_cycle;Signal;HPM_P1;HPM_P2
2022/09/03 00:02:26;;;;;;;3.50;3.20;;;16.90;99.90;;;;;;5012285;28;20440;-67
2022/09/03 00:05:04;;;;;;;3.43;3.13;;;16.90;99.90;;;;;;5011108;28;20434;-67
2022/09/03 00:07:54;;;;;;;2.83;2.63;;;16.90;99.90;;;;;;5011198;28;20433;-67
2022/09/03 00:10:58;;;;;;;5.20;3.40;;;17.00;99.90;;;;;;5011581;28;20480;-67
2022/09/03 00:13:37;;;;;;;5.03;3.40;;;17.10;99.90;;;;;;5015773;28;20441;-67
2022/09/03 00:16:09;;;;;;;5.07;2.90;;;17.20;99.90;;;;;;5008178;28;20445;-67
2022/09/03 00:18:40;;;;;;;3.57;3.27;;;17.30;99.90;;;;;;5011228;28;20437;-67
2022/09/03 00:21:16;;;;;;;2.50;2.30;;;17.40;99.90;;;;;;5011604;28;20834;-66
2022/09/03 00:23:45;;;;;;;3.40;3.00;;;17.40;99.90;;;;;;5011464;28;20583;-67
2022/09/03 00:26:11;;;;;;;3.10;2.90;;;17.50;99.90;;;;;;5011323;28;20504;-66
2022/09/03 00:28:52;;;;;;;4.60;2.70;;;17.50;99.90;;;;;;5011052;28;20524;-66
2022/09/03 00:31:20;;;;;;;2.90;2.70;;;17.50;99.90;;;;;;5013070;28;20531;-67
2022/09/03 00:33:50;;;;;;;3.50;3.20;;;17.50;99.90;;;;;;5014220;28;20446;-66
2022/09/03 00:36:22;;;;;;;3.27;3.07;;;17.50;99.90;;;;;;5009644;28;20470;-67
2022/09/03 00:38:47;;;;;;;6.33;2.93;;;17.50;99.90;;;;;;5010033;28;20457;-67
2022/09/03 00:41:32;;;;;;;2.77;2.53;;;17.40;99.90;;;;;;5011717;28;20469;-67
2022/09/03 00:44:36;;;;;;;5.90;3.97;;;17.40;99.90;;;;;;5009802;28;20318;-66
2022/09/03 00:47:28;;;;;;;2.90;2.80;;;17.40;99.90;;;;;;5006147;28;20441;-66
2022/09/03 00:50:19;;;;;;;3.13;2.60;;;17.50;99.90;;;;;;5008328;28;21028;-67
2022/09/03 00:53:03;;;;;;;4.07;2.73;;;17.50;99.90;;;;;;5011720;28;20532;-67
2022/09/03 00:55:33;;;;;;;2.83;2.60;;;17.40;99.90;;;;;;5010490;28;20966;-67
2022/09/03 00:58:16;;;;;;;3.80;3.50;;;17.40;99.90;;;;;;5009157;28;21164;-66
2022/09/03 01:00:43;;;;;;;2.90;2.70;;;17.20;99.90;;;;;;5004890;28;20512;-67
2022/09/03 01:03:15;;;;;;;2.77;2.53;;;17.30;99.90;;;;;;5016349;28;20451;-67
2022/09/03 01:05:58;;;;;;;2.93;2.73;;;17.30;99.90;;;;;;5007612;28;20453;-67
2022/09/03 01:08:35;;;;;;;3.17;2.97;;;17.40;99.90;;;;;;5008238;28;20450;-67
2022/09/03 01:11:26;;;;;;;3.60;2.97;;;17.40;99.90;;;;;;5009965;28;20481;-67
2022/09/03 01:14:28;;;;;;;5.00;2.63;;;17.40;99.90;;;;;;5011226;28;20479;-67
2022/09/03 01:16:54;;;;;;;2.93;2.73;;;17.40;99.90;;;;;;5010890;28;20445;-67
2022/09/03 01:19:38;;;;;;;3.50;3.07;;;17.40;99.90;;;;;;5010103;28;20496;-67
2022/09/03 01:22:30;;;;;;;3.10;2.70;;;17.40;99.90;;;;;;5009831;28;20183;-67
2022/09/03 01:25:16;;;;;;;2.97;2.77;;;17.40;99.90;;;;;;5004471;28;20437;-67
2022/09/03 01:28:09;;;;;;;3.10;2.90;;;17.40;99.90;;;;;;5005184;28;20470;-67
2022/09/03 01:30:40;;;;;;;4.53;2.60;;;17.50;99.90;;;;;;5010080;28;20550;-66
2022/09/03 01:33:34;;;;;;;3.40;2.63;;;17.50;99.90;;;;;;5011208;28;20973;-66
2022/09/03 01:36:41;;;;;;;3.40;3.10;;;17.40;99.90;;;;;;5010172;28;20927;-67
2022/09/03 01:39:17;;;;;;;2.73;2.53;;;17.50;99.90;;;;;;4988112;28;20527;-66
2022/09/03 01:42:14;;;;;;;3.10;2.90;;;17.40;99.90;;;;;;5008940;28;20462;-66
2022/09/03 01:44:57;;;;;;;2.80;2.60;;;17.40;99.90;;;;;;5009128;28;20434;-67
2022/09/03 01:47:39;;;;;;;2.90;2.70;;;17.40;99.90;;;;;;5010730;28;20487;-67
2022/09/03 01:50:38;;;;;;;2.87;2.40;;;17.40;99.90;;;;;;5006506;28;20468;-67
2022/09/03 01:53:11;;;;;;;3.27;3.07;;;17.40;99.90;;;;;;5008831;28;20468;-67
2022/09/03 01:56:12;;;;;;;3.10;2.90;;;17.40;99.90;;;;;;5002704;28;20441;-66
2022/09/03 01:58:41;;;;;;;5.17;2.90;;;17.30;99.90;;;;;;5008709;28;20441;-67
2022/09/03 02:01:15;;;;;;;3.57;2.80;;;17.40;99.90;;;;;;5007905;28;20478;-68
2022/09/03 02:03:44;;;;;;;2.73;2.43;;;17.30;99.90;;;;;;5002818;28;20495;-67
2022/09/03 02:06:11;;;;;;;8.90;2.83;;;17.30;99.90;;;;;;5010370;28;20954;-66
2022/09/03 02:08:36;;;;;;;3.00;2.70;;;17.30;99.90;;;;;;5007761;28;20947;-67
2022/09/03 02:11:07;;;;;;;4.53;4.17;;;17.30;99.90;;;;;;5010372;28;20473;-67
2022/09/03 02:13:47;;;;;;;2.80;2.60;;;17.30;99.90;;;;;;5009208;28;20441;-67
2022/09/03 02:16:24;;;;;;;3.13;2.90;;;17.30;99.90;;;;;;5007125;28;20430;-67
2022/09/03 02:19:03;;;;;;;3.33;3.10;;;17.30;99.90;;;;;;5008931;28;20928;-67
2022/09/03 02:21:35;;;;;;;2.83;2.63;;;17.30;99.90;;;;;;5010369;28;20837;-67
2022/09/03 02:24:03;;;;;;;4.47;3.57;;;17.20;99.90;;;;;;5010167;28;20523;-66
2022/09/03 02:26:28;;;;;;;3.93;2.77;;;17.30;99.90;;;;;;5013581;28;20445;-67
2022/09/03 02:28:55;;;;;;;2.60;2.40;;;17.20;99.90;;;;;;5008785;28;20446;-66
2022/09/03 02:31:21;;;;;;;3.53;3.33;;;17.20;99.90;;;;;;5012214;28;20628;-66
2022/09/03 02:33:48;;;;;;;3.13;2.80;;;17.10;99.90;;;;;;5016984;28;20453;-66
2022/09/03 02:36:18;;;;;;;2.97;2.77;;;17.10;99.90;;;;;;5010076;28;20182;-67
2022/09/03 02:38:45;;;;;;;5.10;3.03;;;17.00;99.90;;;;;;5008225;28;20525;-67
2022/09/03 02:41:12;;;;;;;5.33;3.17;;;16.90;99.90;;;;;;5009865;28;20560;-66
2022/09/03 02:43:56;;;;;;;3.10;2.47;;;16.80;99.90;;;;;;5008647;28;21120;-66
2022/09/03 02:46:26;;;;;;;3.70;2.67;;;16.80;99.90;;;;;;5007003;28;20521;-67
2022/09/03 02:48:53;;;;;;;3.13;2.87;;;16.80;99.90;;;;;;5010113;28;20441;-66
2022/09/03 02:51:19;;;;;;;3.30;3.00;;;16.70;99.90;;;;;;5008996;28;20548;-67
2022/09/03 02:53:44;;;;;;;5.23;3.20;;;16.60;99.90;;;;;;5009122;28;20521;-67
2022/09/03 02:56:11;;;;;;;4.63;3.40;;;16.60;99.90;;;;;;5008743;28;20187;-66
2022/09/03 02:58:36;;;;;;;2.93;2.73;;;16.60;99.90;;;;;;5009014;28;20472;-66
2022/09/03 03:01:03;;;;;;;2.80;2.60;;;16.50;99.90;;;;;;5009942;28;20501;-67
2022/09/03 03:03:28;;;;;;;2.90;2.80;;;16.60;99.90;;;;;;5008953;28;20182;-67
2022/09/03 03:05:56;;;;;;;3.90;3.60;;;16.40;99.90;;;;;;5009943;28;20441;-66
2022/09/03 03:08:26;;;;;;;3.83;3.50;;;16.30;99.90;;;;;;5007815;28;20183;-66
2022/09/03 03:10:55;;;;;;;3.90;3.60;;;16.20;99.90;;;;;;5010258;28;20465;-67
2022/09/03 03:13:21;;;;;;;4.27;3.43;;;16.20;99.90;;;;;;5013237;28;20533;-67
2022/09/03 03:15:47;;;;;;;4.20;3.90;;;16.10;99.90;;;;;;5010501;28;20528;-67
2022/09/03 03:18:13;;;;;;;3.53;3.33;;;16.10;99.90;;;;;;5012179;28;20433;-67
2022/09/03 03:20:40;;;;;;;3.50;3.20;;;16.00;99.90;;;;;;5012834;28;20840;-67
2022/09/03 03:23:06;;;;;;;3.90;3.03;;;16.00;99.90;;;;;;5017489;28;20438;-67
2022/09/03 03:25:34;;;;;;;3.80;3.50;;;16.00;99.90;;;;;;5024930;28;20448;-67
2022/09/03 03:27:59;;;;;;;4.37;4.07;;;16.00;99.90;;;;;;5017994;28;20438;-67
2022/09/03 03:30:25;;;;;;;3.77;3.57;;;15.90;99.90;;;;;;5012175;28;20464;-67
2022/09/03 03:32:52;;;;;;;3.87;3.50;;;15.90;99.90;;;;;;5011923;28;20174;-66
2022/09/03 03:35:18;;;;;;;3.60;3.20;;;15.90;99.90;;;;;;5010819;28;20444;-66
2022/09/03 03:37:44;;;;;;;4.40;3.60;;;15.90;99.90;;;;;;5011399;28;20441;-67
2022/09/03 03:40:10;;;;;;;4.30;3.90;;;15.90;99.90;;;;;;5008555;28;20372;-67
2022/09/03 03:42:35;;;;;;;4.33;3.93;;;15.90;99.90;;;;;;5011978;28;20264;-66
2022/09/03 03:45:01;;;;;;;3.83;3.53;;;16.00;99.90;;;;;;5012810;28;20905;-66
2022/09/03 03:47:31;;;;;;;4.00;3.60;;;16.00;99.90;;;;;;5012508;28;20543;-67
2022/09/03 03:49:59;;;;;;;4.17;3.80;;;16.00;99.90;;;;;;5006582;28;20209;-67
2022/09/03 03:52:26;;;;;;;3.93;3.70;;;15.90;99.90;;;;;;5011224;28;20977;-66
2022/09/03 03:54:52;;;;;;;4.87;4.47;;;15.90;99.90;;;;;;5010723;28;20492;-67
2022/09/03 03:57:18;;;;;;;4.33;4.03;;;16.00;99.90;;;;;;5012370;28;20433;-67
2022/09/03 03:59:44;;;;;;;4.43;3.80;;;16.00;99.90;;;;;;5011644;28;20834;-67
2022/09/03 04:02:10;;;;;;;4.60;4.27;;;15.90;99.90;;;;;;5020707;28;20178;-67
2022/09/03 04:04:36;;;;;;;3.50;3.20;;;16.00;99.90;;;;;;5009741;28;20430;-67
2022/09/03 04:07:01;;;;;;;3.87;3.67;;;16.00;99.90;;;;;;5010928;28;20523;-67
2022/09/03 04:09:30;;;;;;;4.60;4.20;;;16.00;99.90;;;;;;5012336;28;20175;-67
2022/09/03 04:11:56;;;;;;;4.63;4.23;;;16.00;99.90;;;;;;5017971;28;20175;-67
2022/09/03 04:14:23;;;;;;;4.57;4.27;;;16.10;99.90;;;;;;5012365;28;20432;-67
2022/09/03 04:16:49;;;;;;;4.40;4.10;;;16.20;99.90;;;;;;5011565;28;20426;-67
2022/09/03 04:19:15;;;;;;;4.60;4.17;;;16.20;99.90;;;;;;5009975;28;20445;-67
2022/09/03 04:21:41;;;;;;;6.80;3.53;;;16.30;99.90;;;;;;5011188;28;21103;-67
2022/09/03 04:24:07;;;;;;;4.97;4.57;;;16.30;99.90;;;;;;5011891;28;20442;-67
2022/09/03 04:26:33;;;;;;;5.10;4.70;;;16.30;99.90;;;;;;5011825;28;20877;-67
2022/09/03 04:29:07;;;;;;;5.90;5.30;;;16.30;99.90;;;;;;5008711;28;20551;-67
2022/09/03 04:31:34;;;;;;;6.00;4.37;;;16.30;99.90;;;;;;5010810;28;20975;-67
2022/09/03 04:33:59;;;;;;;4.20;4.00;;;16.20;99.90;;;;;;5012136;28;20507;-67
2022/09/03 04:36:27;;;;;;;4.53;4.20;;;16.20;99.90;;;;;;5009218;28;20441;-67
2022/09/03 04:38:54;;;;;;;4.80;4.40;;;16.20;99.90;;;;;;5010271;28;20183;-67
2022/09/03 04:41:23;;;;;;;9.63;4.40;;;16.20;99.90;;;;;;5011355;28;20505;-67
2022/09/03 04:43:51;;;;;;;4.77;4.37;;;16.20;99.90;;;;;;5011551;28;20441;-67
2022/09/03 04:46:17;;;;;;;4.20;3.90;;;16.20;99.90;;;;;;5009478;28;20448;-67
2022/09/03 04:48:43;;;;;;;6.10;4.67;;;16.30;99.90;;;;;;5010424;28;20537;-68
2022/09/03 04:51:12;;;;;;;5.20;4.80;;;16.30;99.90;;;;;;5010366;28;21061;-67
2022/09/03 04:53:39;;;;;;;4.60;4.30;;;16.30;99.90;;;;;;5004679;28;20496;-67
2022/09/03 04:56:17;;;;;;;5.57;4.33;;;16.30;99.90;;;;;;5010520;28;20452;-67
2022/09/03 04:58:43;;;;;;;4.97;4.40;;;16.30;99.90;;;;;;5009062;28;20449;-67
2022/09/03 05:01:10;;;;;;;5.10;4.70;;;16.30;99.90;;;;;;5020402;28;20803;-67
2022/09/03 05:03:37;;;;;;;4.40;4.03;;;16.30;99.90;;;;;;5006724;28;20444;-67
2022/09/03 05:06:04;;;;;;;5.40;4.47;;;16.30;99.90;;;;;;5022282;28;20964;-67
2022/09/03 05:08:31;;;;;;;4.67;4.37;;;16.30;99.90;;;;;;5018949;28;20838;-67
2022/09/03 05:10:59;;;;;;;4.50;4.10;;;16.30;99.90;;;;;;5019266;28;20473;-67
2022/09/03 05:13:25;;;;;;;4.80;4.40;;;16.30;99.90;;;;;;5016641;28;20438;-67
2022/09/03 05:15:50;;;;;;;5.17;4.77;;;16.30;99.90;;;;;;5023674;28;20587;-67
2022/09/03 05:18:16;;;;;;;4.50;4.10;;;16.40;99.90;;;;;;5021341;28;20524;-67
2022/09/03 05:20:42;;;;;;;4.50;4.20;;;16.40;99.90;;;;;;5019253;28;20211;-67
2022/09/03 05:23:07;;;;;;;5.40;4.90;;;16.40;99.90;;;;;;5023206;28;20449;-67
2022/09/03 05:25:33;;;;;;;5.30;5.00;;;16.50;99.90;;;;;;5016240;28;20639;-67
2022/09/03 05:28:00;;;;;;;4.73;4.23;;;16.50;99.90;;;;;;5016295;28;20198;-67
2022/09/03 05:30:26;;;;;;;4.07;3.77;;;16.50;99.90;;;;;;5021991;28;20206;-67
2022/09/03 05:32:51;;;;;;;5.27;4.87;;;16.50;99.90;;;;;;5018833;28;20552;-67
2022/09/03 05:35:17;;;;;;;5.80;5.23;;;16.60;99.90;;;;;;5020646;28;20229;-67
2022/09/03 05:37:43;;;;;;;5.20;4.90;;;16.60;99.90;;;;;;5015679;28;20186;-67
2022/09/03 05:40:11;;;;;;;4.37;4.07;;;16.60;99.90;;;;;;5018025;28;20291;-67
2022/09/03 05:42:37;;;;;;;7.03;4.30;;;16.70;99.90;;;;;;5016536;28;20178;-67
2022/09/03 05:45:09;;;;;;;9.47;4.90;;;16.70;99.90;;;;;;5017453;28;20449;-67
2022/09/03 05:47:36;;;;;;;5.43;5.03;;;16.80;99.90;;;;;;5010532;28;20946;-67
2022/09/03 05:50:01;;;;;;;4.90;4.50;;;16.70;99.90;;;;;;5015982;28;20846;-67
2022/09/03 05:52:27;;;;;;;4.73;4.33;;;16.70;99.90;;;;;;5007169;28;20453;-67
2022/09/03 05:54:52;;;;;;;6.37;5.80;;;16.70;99.90;;;;;;5007832;28;20644;-67
2022/09/03 05:57:18;;;;;;;5.47;4.97;;;16.80;99.90;;;;;;5010865;28;20225;-67
2022/09/03 05:59:43;;;;;;;4.83;4.43;;;16.80;99.90;;;;;;5017123;28;20205;-67
2022/09/03 06:02:09;;;;;;;6.33;5.00;;;16.90;99.90;;;;;;5024290;28;20265;-67
2022/09/03 06:04:34;;;;;;;5.20;4.80;;;17.00;99.90;;;;;;5019597;28;20198;-67
2022/09/03 06:07:00;;;;;;;4.73;4.43;;;17.00;99.90;;;;;;5018426;28;20644;-67
2022/09/03 06:09:25;;;;;;;5.07;4.67;;;17.00;99.90;;;;;;5020882;28;20175;-67
2022/09/03 06:11:52;;;;;;;8.87;5.00;;;17.10;99.90;;;;;;5018345;28;20675;-67
2022/09/03 06:14:18;;;;;;;5.63;5.10;;;17.00;99.90;;;;;;5025485;28;20268;-67
2022/09/03 06:16:48;;;;;;;5.63;4.73;;;17.10;99.90;;;;;;5019174;28;20461;-67
2022/09/03 06:19:13;;;;;;;6.10;5.50;;;17.10;99.90;;;;;;5012775;28;20430;-67
2022/09/03 06:21:41;;;;;;;5.97;5.47;;;17.30;99.90;;;;;;5010551;28;20477;-67
2022/09/03 06:24:13;;;;;;;7.90;7.20;;;17.40;99.90;;;;;;5011106;28;20587;-67
2022/09/03 06:26:39;;;;;;;5.90;5.30;;;17.60;99.90;;;;;;5003909;28;20481;-67
2022/09/03 06:29:05;;;;;;;8.80;5.90;;;17.70;99.90;;;;;;5008628;28;20469;-68
2022/09/03 06:31:31;;;;;;;5.10;4.70;;;17.60;99.90;;;;;;5010461;28;20500;-67
2022/09/03 06:33:57;;;;;;;6.37;5.00;;;17.60;99.90;;;;;;5010866;28;20441;-67
2022/09/03 06:36:25;;;;;;;5.27;4.90;;;17.60;99.90;;;;;;5012360;28;20824;-67
2022/09/03 06:38:53;;;;;;;7.20;6.07;;;17.70;99.90;;;;;;5008600;28;20198;-67
2022/09/03 06:41:23;;;;;;;8.37;5.10;;;17.70;99.90;;;;;;5009933;28;21052;-67
2022/09/03 06:43:50;;;;;;;5.47;5.03;;;17.70;99.90;;;;;;5009562;28;20834;-67
2022/09/03 06:46:17;;;;;;;7.83;5.30;;;17.70;99.90;;;;;;5009144;28;20433;-67
2022/09/03 06:48:43;;;;;;;8.27;4.80;;;17.70;99.90;;;;;;5007984;28;20520;-67
2022/09/03 06:51:12;;;;;;;5.63;5.17;;;17.70;99.90;;;;;;5023970;28;20536;-67
2022/09/03 06:53:43;;;;;;;5.00;4.70;;;17.80;99.90;;;;;;5013263;28;20575;-67
2022/09/03 06:56:15;;;;;;;6.47;5.87;;;17.80;99.90;;;;;;5024963;28;20433;-67
2022/09/03 06:58:43;;;;;;;6.13;5.63;;;17.90;99.90;;;;;;5018651;28;20437;-67
2022/09/03 07:01:15;;;;;;;6.30;4.77;;;18.00;99.90;;;;;;5022380;28;20608;-67
2022/09/03 07:03:42;;;;;;;6.03;5.63;;;18.00;99.90;;;;;;5016586;28;20447;-69
2022/09/03 07:06:14;;;;;;;6.37;5.90;;;18.10;99.90;;;;;;5024891;28;20769;-67
2022/09/03 07:08:40;;;;;;;5.87;5.37;;;18.10;99.90;;;;;;5018353;28;20446;-67
2022/09/03 07:11:09;;;;;;;7.30;6.20;;;18.20;99.90;;;;;;5022227;28;20476;-67
2022/09/03 07:13:35;;;;;;;6.23;5.83;;;18.40;99.90;;;;;;5024751;28;20437;-67
2022/09/03 07:16:04;;;;;;;6.90;6.30;;;18.50;99.90;;;;;;5017358;28;20524;-68
2022/09/03 07:18:30;;;;;;;6.43;5.97;;;18.50;99.90;;;;;;5009924;28;20464;-67
2022/09/03 07:21:07;;;;;;;8.23;6.30;;;18.60;99.90;;;;;;5013122;28;20512;-66
2022/09/03 07:23:34;;;;;;;6.40;5.90;;;18.50;99.90;;;;;;5018819;28;20425;-66
2022/09/03 07:26:03;;;;;;;6.67;5.97;;;18.60;99.90;;;;;;5013739;28;20441;-66
2022/09/03 07:28:31;;;;;;;6.33;5.83;;;18.60;99.90;;;;;;5015038;28;20473;-66
2022/09/03 07:31:02;;;;;;;6.63;5.90;;;18.80;99.90;;;;;;5011646;28;20472;-66
2022/09/03 07:33:30;;;;;;;5.73;5.33;;;18.90;99.90;;;;;;5012948;28;20812;-66
2022/09/03 07:35:55;;;;;;;6.17;5.67;;;19.10;99.90;;;;;;5012047;28;20963;-66
2022/09/03 07:38:22;;;;;;;6.43;5.83;;;19.20;99.90;;;;;;5012507;28;20528;-67
2022/09/03 07:40:48;;;;;;;5.97;5.47;;;19.20;99.90;;;;;;5012527;28;20310;-66
2022/09/03 07:43:13;;;;;;;6.03;5.53;;;19.30;99.90;;;;;;5010950;28;20947;-66
2022/09/03 07:45:40;;;;;;;6.33;5.83;;;19.40;99.90;;;;;;5011907;28;20182;-67
2022/09/03 07:48:05;;;;;;;5.63;5.23;;;19.60;99.90;;;;;;5011642;28;20229;-67
2022/09/03 07:50:36;;;;;;;11.53;5.43;;;19.80;99.90;;;;;;5015165;28;20973;-67
2022/09/03 07:53:02;;;;;;;6.87;6.30;;;20.00;99.90;;;;;;5021186;28;20175;-67
2022/09/03 07:55:28;;;;;;;5.80;5.30;;;19.80;99.90;;;;;;5020292;28;20804;-67
2022/09/03 07:57:58;;;;;;;5.50;5.10;;;19.90;99.90;;;;;;5024786;28;20185;-67
2022/09/03 08:00:24;;;;;;;5.70;5.30;;;20.00;99.90;;;;;;5021422;28;20202;-68
2022/09/03 08:02:51;;;;;;;5.20;4.80;;;20.30;99.90;;;;;;5020487;28;20440;-67
2022/09/03 08:05:20;;;;;;;9.87;5.60;;;20.30;99.90;;;;;;5022193;28;20434;-67
2022/09/03 08:07:47;;;;;;;5.50;5.03;;;20.20;99.90;;;;;;5024703;28;20428;-66
2022/09/03 08:10:13;;;;;;;5.73;5.23;;;20.30;99.90;;;;;;5023285;28;20886;-66
2022/09/03 08:12:39;;;;;;;5.50;5.10;;;20.30;99.90;;;;;;5018881;28;20457;-68
2022/09/03 08:15:05;;;;;;;5.43;5.00;;;20.60;99.90;;;;;;5013059;28;20433;-68
2022/09/03 08:17:30;;;;;;;5.73;4.90;;;20.90;99.90;;;;;;5012241;28;21023;-68
2022/09/03 08:19:57;;;;;;;5.67;5.17;;;20.90;99.90;;;;;;5007273;28;20466;-68
2022/09/03 08:22:24;;;;;;;5.80;4.43;;;21.10;99.90;;;;;;5013245;28;20171;-68
2022/09/03 08:24:50;;;;;;;7.03;6.40;;;21.30;99.90;;;;;;5020792;28;20429;-68
2022/09/03 08:27:15;;;;;;;6.03;5.63;;;21.40;99.90;;;;;;5020863;28;20499;-68
2022/09/03 08:29:41;;;;;;;4.90;4.50;;;21.80;99.90;;;;;;5007818;28;20765;-66
2022/09/03 08:32:06;;;;;;;5.23;4.90;;;22.00;99.90;;;;;;5011863;28;20237;-69
2022/09/03 08:34:32;;;;;;;5.40;4.90;;;22.40;99.90;;;;;;5019794;28;20258;-68
2022/09/03 08:37:00;;;;;;;5.03;4.73;;;22.90;99.90;;;;;;5020388;28;20179;-68
2022/09/03 08:39:25;;;;;;;4.80;4.50;;;23.30;99.90;;;;;;5021947;28;20229;-68
2022/09/03 08:42:16;;;;;;;4.40;4.10;;;23.80;99.90;;;;;;5023746;28;20938;-69
2022/09/03 08:44:44;;;;;;;4.90;4.50;;;24.50;99.90;;;;;;5018618;28;20290;-68
2022/09/03 08:47:22;;;;;;;4.47;4.17;;;25.30;99.90;;;;;;5013958;28;20438;-68
2022/09/03 08:49:54;;;;;;;4.00;3.70;;;25.40;99.90;;;;;;5012473;28;20994;-68
2022/09/03 08:52:54;;;;;;;4.33;4.03;;;25.30;99.90;;;;;;5022237;28;20436;-68
2022/09/03 08:55:27;;;;;;;3.70;3.43;;;24.90;99.90;;;;;;5019424;28;21033;-68
2022/09/03 08:58:13;;;;;;;4.70;4.33;;;24.70;99.90;;;;;;5014867;28;20871;-68
2022/09/03 09:01:00;;;;;;;3.80;3.50;;;24.40;99.90;;;;;;5018869;28;20997;-68
2022/09/03 09:03:34;;;;;;;4.70;4.40;;;24.10;99.90;;;;;;5020037;28;20447;-68
2022/09/03 09:06:28;;;;;;;3.60;3.40;;;23.90;99.90;;;;;;5018009;28;20453;-68
2022/09/03 09:09:13;;;;;;;4.50;3.73;;;23.80;99.90;;;;;;5010501;28;20426;-68
2022/09/03 09:12:03;;;;;;;4.80;4.10;;;23.20;99.90;;;;;;5004471;28;20423;-68
2022/09/03 09:14:44;;;;;;;5.80;3.90;;;22.90;99.90;;;;;;5010414;28;20479;-68
2022/09/03 09:17:15;;;;;;;4.67;4.37;;;22.60;99.90;;;;;;5012698;28;20849;-65
2022/09/03 09:20:15;;;;;;;6.10;4.60;;;22.70;99.90;;;;;;5011690;28;20524;-64
2022/09/03 09:22:45;;;;;;;4.63;4.33;;;22.60;99.90;;;;;;5012513;28;20534;-64
2022/09/03 09:25:16;;;;;;;4.37;4.03;;;22.80;99.90;;;;;;5012668;28;20420;-66
2022/09/03 09:28:02;;;;;;;4.07;3.77;;;23.20;99.90;;;;;;4994025;28;20435;-65
2022/09/03 09:30:31;;;;;;;4.40;4.10;;;23.80;99.90;;;;;;5000038;28;20460;-67
2022/09/03 09:32:56;;;;;;;4.23;3.93;;;24.60;99.90;;;;;;5011324;28;20433;-67
2022/09/03 09:35:22;;;;;;;3.67;3.47;;;25.50;99.90;;;;;;5021554;28;20961;-67
2022/09/03 09:37:57;;;;;;;12.27;4.17;;;26.20;99.90;;;;;;5018663;28;20270;-67
2022/09/03 09:40:30;;;;;;;4.63;4.23;;;27.60;99.90;;;;;;5011465;28;20468;-67
2022/09/03 09:43:09;;;;;;;3.63;3.40;;;28.50;99.90;;;;;;5023517;28;20544;-67
2022/09/03 09:45:37;;;;;;;3.77;3.57;;;30.20;99.30;;;;;;5012939;28;20436;-67
2022/09/03 09:48:09;;;;;;;4.73;4.43;;;31.20;95.80;;;;;;5014906;28;20505;-67
2022/09/03 09:50:35;;;;;;;4.37;4.13;;;31.60;93.30;;;;;;5021822;28;20456;-67
2022/09/03 09:53:13;;;;;;;4.77;4.47;;;31.70;91.50;;;;;;5022692;28;20523;-67
2022/09/03 09:55:48;;;;;;;4.40;4.20;;;31.10;91.30;;;;;;5015347;28;20178;-67
2022/09/03 09:58:13;;;;;;;5.10;4.70;;;30.30;91.50;;;;;;5021542;28;20522;-67
2022/09/03 10:00:41;;;;;;;4.20;3.90;;;29.60;92.20;;;;;;5022358;28;20563;-67
2022/09/03 10:03:12;;;;;;;4.00;3.70;;;28.70;93.70;;;;;;5022490;28;20188;-67
2022/09/03 10:05:39;;;;;;;5.10;4.70;;;27.90;94.30;;;;;;5014527;28;20516;-67
2022/09/03 10:08:17;;;;;;;4.97;4.57;;;27.40;95.50;;;;;;5021486;28;20433;-67
2022/09/03 10:10:48;;;;;;;4.90;4.50;;;26.70;96.60;;;;;;5014135;28;20551;-67
2022/09/03 10:13:41;;;;;;;7.60;4.77;;;26.30;97.60;;;;;;5017254;28;20484;-67
2022/09/03 10:16:25;;;;;;;5.00;4.60;;;25.70;99.40;;;;;;5018483;28;20430;-66
2022/09/03 10:19:12;;;;;;;6.37;5.73;;;25.60;99.30;;;;;;5011484;28;20782;-67
2022/09/03 10:22:17;;;;;;;8.57;7.77;;;25.60;99.30;;;;;;5008577;28;20463;-67
2022/09/03 10:24:56;;;;;;;4.90;4.60;;;25.90;99.30;;;;;;5015817;28;20445;-67
2022/09/03 10:27:22;;;;;;;4.60;4.30;;;26.00;99.00;;;;;;5022427;28;20483;-67
2022/09/03 10:29:48;;;;;;;4.90;4.50;;;26.20;99.20;;;;;;5024888;28;20452;-67
2022/09/03 10:32:49;;;;;;;5.73;5.10;;;26.60;98.50;;;;;;5018127;28;20190;-67
2022/09/03 10:35:29;;;;;;;4.83;4.53;;;28.20;96.50;;;;;;5022989;28;20433;-67
2022/09/03 10:38:19;;;;;;;4.50;4.10;;;31.00;92.30;;;;;;5026417;28;20443;-66
2022/09/03 10:41:18;;;;;;;4.73;4.33;;;32.20;87.90;;;;;;5017223;28;20557;-67
2022/09/03 10:44:11;;;;;;;4.80;4.50;;;32.80;83.30;;;;;;5014040;28;20518;-67
2022/09/03 10:46:56;;;;;;;4.70;4.40;;;33.20;80.20;;;;;;5020152;28;20492;-66
2022/09/03 10:49:32;;;;;;;4.80;4.50;;;33.80;77.20;;;;;;5022509;28;22256;-67
2022/09/03 10:52:16;;;;;;;4.40;4.10;;;34.10;74.50;;;;;;5025474;28;20432;-67
2022/09/03 10:55:10;;;;;;;5.33;4.93;;;33.30;74.70;;;;;;5019516;28;20495;-67
2022/09/03 10:57:53;;;;;;;4.67;4.30;;;31.90;75.90;;;;;;5017813;28;20886;-67
2022/09/03 11:00:19;;;;;;;6.80;5.10;;;31.20;78.40;;;;;;5022388;28;20464;-67
2022/09/03 11:03:03;;;;;;;4.70;4.50;;;29.50;81.30;;;;;;5018206;28;20507;-67
2022/09/03 11:05:37;;;;;;;5.40;5.00;;;28.40;86.70;;;;;;5021926;28;20174;-67
2022/09/03 11:08:11;;;;;;;5.03;4.80;;;27.90;88.30;;;;;;5016544;28;20444;-67
2022/09/03 11:11:05;;;;;;;5.90;5.50;;;27.70;90.20;;;;;;5014009;28;20888;-67
2022/09/03 11:13:36;;;;;;;4.67;4.47;;;27.10;91.30;;;;;;5021551;28;21010;-67
2022/09/03 11:16:25;;;;;;;5.27;4.97;;;27.00;91.60;;;;;;5023663;28;20437;-67
2022/09/03 11:18:59;;;;;;;5.50;5.10;;;26.80;92.60;;;;;;5017457;28;20529;-67
2022/09/03 11:21:29;;;;;;;6.30;5.80;;;26.70;92.90;;;;;;5020861;28;20469;-67
2022/09/03 11:24:05;;;;;;;5.63;5.13;;;26.50;93.20;;;;;;5025118;28;20443;-66
2022/09/03 11:26:33;;;;;;;5.77;5.40;;;26.30;93.70;;;;;;5023231;28;20465;-67
2022/09/03 11:29:20;;;;;;;6.13;5.67;;;26.10;94.00;;;;;;5016244;28;20519;-67
2022/09/03 11:32:07;;;;;;;6.43;6.03;;;25.50;95.30;;;;;;5015932;28;20448;-67
2022/09/03 11:34:48;;;;;;;6.17;5.77;;;25.00;96.50;;;;;;5016221;28;20543;-67
2022/09/03 11:37:19;;;;;;;5.30;4.90;;;24.70;97.60;;;;;;5022687;28;20436;-67
2022/09/03 11:39:56;;;;;;;7.03;5.80;;;24.40;99.10;;;;;;5017468;28;20460;-67
2022/09/03 11:42:29;;;;;;;5.90;5.37;;;24.10;99.90;;;;;;5013542;28;20495;-67
2022/09/03 11:45:11;;;;;;;6.53;6.00;;;23.80;99.90;;;;;;5025131;28;20436;-67
2022/09/03 11:47:39;;;;;;;5.73;5.33;;;23.80;99.90;;;;;;5025390;28;20486;-66
2022/09/03 11:50:22;;;;;;;7.60;7.00;;;23.70;99.90;;;;;;5017577;28;20449;-67
2022/09/03 11:52:50;;;;;;;6.63;6.17;;;23.50;99.90;;;;;;5020718;28;21231;-67
2022/09/03 11:55:45;;;;;;;7.07;6.00;;;23.10;99.90;;;;;;5024233;28;20919;-67
2022/09/03 11:58:23;;;;;;;6.50;6.10;;;22.80;99.90;;;;;;5019557;28;20472;-67
2022/09/03 12:00:53;;;;;;;6.17;5.77;;;23.00;99.90;;;;;;5011773;28;20832;-66
2022/09/03 12:03:27;;;;;;;6.43;5.80;;;22.90;99.90;;;;;;5020858;28;20494;-67
2022/09/03 12:06:19;;;;;;;10.13;6.70;;;22.70;99.90;;;;;;5012420;28;20449;-67
2022/09/03 12:09:13;;;;;;;6.73;6.17;;;22.30;99.90;;;;;;5013885;28;20465;-66
2022/09/03 12:12:10;;;;;;;6.37;5.77;;;21.80;99.90;;;;;;5014489;28;21219;-67
2022/09/03 12:14:42;;;;;;;7.80;7.20;;;21.40;99.90;;;;;;5021122;28;20437;-67
2022/09/03 12:17:36;;;;;;;7.53;6.93;;;21.20;99.90;;;;;;5020701;28;20429;-67
2022/09/03 12:20:02;;;;;;;7.73;7.20;;;20.90;99.90;;;;;;5009009;28;20482;-67
2022/09/03 12:22:30;;;;;;;12.73;11.27;;;20.70;99.90;;;;;;5020178;28;20988;-67
2022/09/03 12:25:10;;;;;;;6.90;6.33;;;20.60;99.90;;;;;;5020444;28;20434;-66
2022/09/03 12:27:36;;;;;;;6.83;6.13;;;20.10;99.90;;;;;;4996546;28;20526;-66
2022/09/03 12:30:04;;;;;;;6.07;5.67;;;19.70;99.90;;;;;;5017262;28;20552;-66
2022/09/03 12:32:39;;;;;;;4.60;4.20;;;19.20;99.90;;;;;;5022178;28;20197;-67
2022/09/03 12:35:17;;;;;;;5.20;4.67;;;18.80;99.90;;;;;;5024228;28;20593;-67
2022/09/03 12:37:47;;;;;;;4.87;4.47;;;18.60;99.90;;;;;;5020647;28;20958;-67
2022/09/03 12:40:20;;;;;;;3.73;3.43;;;18.30;99.90;;;;;;5016716;28;20475;-67
2022/09/03 12:42:46;;;;;;;3.90;3.60;;;18.20;99.90;;;;;;5020059;28;20436;-67
2022/09/03 12:45:15;;;;;;;5.57;5.07;;;18.20;99.90;;;;;;5020121;28;20441;-67
2022/09/03 12:47:41;;;;;;;4.70;4.30;;;18.20;99.90;;;;;;5023144;28;20517;-67
2022/09/03 12:50:14;;;;;;;5.90;4.60;;;18.20;99.90;;;;;;5014118;28;20473;-67
2022/09/03 12:52:56;;;;;;;4.87;4.43;;;18.20;99.90;;;;;;5003954;28;20856;-67
2022/09/03 12:55:40;;;;;;;7.27;5.20;;;18.20;99.90;;;;;;5013548;28;20556;-67
2022/09/03 12:58:32;;;;;;;5.23;4.57;;;18.20;99.90;;;;;;5022671;28;20934;-67
2022/09/03 13:01:09;;;;;;;6.17;5.67;;;18.30;99.90;;;;;;5017478;28;20465;-67
2022/09/03 13:03:50;;;;;;;4.77;3.93;;;18.30;99.90;;;;;;5018636;28;20440;-67
2022/09/03 13:06:20;;;;;;;4.10;3.80;;;18.30;99.90;;;;;;5019806;28;20440;-66
2022/09/03 13:08:53;;;;;;;4.70;4.30;;;18.30;99.90;;;;;;5019198;28;20441;-67
2022/09/03 13:11:21;;;;;;;3.50;3.20;;;18.30;99.90;;;;;;5019895;28;20473;-66
2022/09/03 13:13:59;;;;;;;10.20;4.40;;;18.40;99.90;;;;;;5018720;28;20433;-67
2022/09/03 13:16:36;;;;;;;4.97;4.47;;;18.40;99.90;;;;;;5021347;28;20461;-67